首页
METAR-TAF:

METAR-TAF

机场 :

金奈国际机场

金奈, 印度

纬度: 13-00N, 经度: 080-11E, 海拔: 10米

当前天气观测

该预报发布于22分钟前的18:30 UTC
风速3节,风向北转东北
温度 24°C
湿度 89%
气压 1015 hPa
能見度: 5000
少量云层高于2000英尺
轻雾

METAR: VOMM 231830Z 03003KT 5000 BR FEW020 24/22 Q1015 NOSIG

时间: 00:22 (18:52 UTC)

预报

该预报发布于1小时和52分钟前的17:00 UTC
预报有效从23日的 18点(UTC)到 24日的 24点(UTC)
风速5节,风向东转东北
能見度: 5000
少量云层高于2000英尺
成为
从 23日的 21点(UTC)到 23日的 22点(UTC)
风速2节,风向多变
能見度: 3000
轻雾
短暂存在
从 24日的 00点(UTC)到 24日的 03点(UTC)
能見度: 1500
轻雾
成为
从 24日的 04点(UTC)到 24日的 05点(UTC)
风速10节,风向东转东北
能見度: 4000
成为
从 24日的 09点(UTC)到 24日的 10点(UTC)
能見度: 6000
成为
从 24日的 15点(UTC)到 24日的 16点(UTC)
能見度: 5000
成为
从 24日的 21点(UTC)到 24日的 22点(UTC)
风速2节,风向多变
能見度: 3000
轻雾

TAF: VOMM 231700Z 2318/2424 07005KT 5000 HZ FEW020 BECMG 2321/2322 VRB02KT 3000 BR TEMPO 2400/2403 1500 BR BECMG 2404/2405 07010KT 4000 HZ BECMG 2409/2410 6000 BECMG 2415/2416 5000 HZ BECMG 2421/2422 VRB02KT 3000 BR

超过4000个机场的气象观测和天气预报(METAR&TAF报告)。

可查询的气象台以黄色和红色小点在地图上表示。

将鼠标移到小点上方,可查看气象台名称。

然后点击查看天气观测和预报。

如需切换地图:点击带黑十字的绿色按钮放大地图;点击带横线的绿色按钮缩小地图;或者点击绿色箭头查看邻近地区的地图。


METAR-TAF: